createdAt,value
2017-10-28T00:01:07.200Z,12.50
2017-10-28T00:03:34.785Z,13.00
2017-10-28T00:06:02.234Z,14.03
2017-10-28T00:08:29.710Z,13.80
2017-10-28T00:10:57.483Z,13.10
2017-10-28T00:13:25.005Z,13.23
2017-10-28T00:15:53.241Z,13.50
2017-10-28T00:18:21.567Z,13.33
2017-10-28T00:20:49.035Z,12.57
2017-10-28T00:23:16.664Z,13.90
2017-10-28T00:25:44.185Z,12.73
2017-10-28T00:28:12.440Z,11.70
2017-10-28T00:30:45.635Z,12.73
2017-10-28T00:33:19.509Z,13.80
2017-10-28T00:35:53.381Z,13.20
2017-10-28T00:38:20.856Z,14.77
2017-10-28T00:40:49.084Z,8.97
2017-10-28T00:43:16.653Z,10.77
2017-10-28T00:45:44.128Z,7.10
2017-10-28T00:48:11.569Z,5.50
2017-10-28T00:50:39.145Z,11.10
2017-10-28T00:53:06.610Z,13.83
2017-10-28T00:55:34.076Z,12.90
2017-10-28T00:58:01.991Z,13.80
2017-10-28T01:00:29.474Z,14.67
2017-10-28T01:02:56.932Z,14.00
2017-10-28T01:05:24.854Z,13.70
2017-10-28T01:07:53.092Z,14.37
2017-10-28T01:10:20.554Z,14.30
2017-10-28T01:12:49.239Z,15.13
2017-10-28T01:15:16.716Z,13.40
2017-10-28T01:17:44.183Z,13.40
2017-10-28T01:20:12.507Z,14.40
2017-10-28T01:22:40.015Z,13.70
2017-10-28T01:25:07.513Z,14.50
2017-10-28T01:27:35.074Z,14.43
2017-10-28T01:30:02.527Z,14.23
2017-10-28T01:32:30.014Z,14.37
2017-10-28T01:34:57.587Z,14.30
2017-10-28T01:37:25.033Z,15.20
2017-10-28T01:39:52.511Z,13.90
2017-10-28T01:42:20.055Z,14.00
2017-10-28T01:44:47.512Z,14.37
2017-10-28T01:47:15.855Z,14.57
2017-10-28T01:49:43.469Z,14.03
2017-10-28T01:52:10.948Z,15.13
2017-10-28T01:54:38.419Z,14.10
2017-10-28T01:57:06.004Z,13.90
2017-10-28T01:59:33.453Z,8.03
2017-10-28T02:02:00.927Z,9.77
2017-10-28T02:04:28.472Z,13.70
2017-10-28T02:06:56.730Z,14.53
2017-10-28T02:09:24.295Z,13.00
2017-10-28T02:11:51.886Z,14.13
2017-10-28T02:14:19.471Z,14.33
2017-10-28T02:16:46.923Z,14.47
2017-10-28T02:19:15.194Z,15.70
2017-10-28T02:21:42.755Z,14.80
2017-10-28T02:24:11.002Z,13.93
2017-10-28T02:26:39.300Z,14.10
2017-10-28T02:29:06.861Z,14.77
2017-10-28T02:31:34.419Z,15.60
2017-10-28T02:34:01.947Z,14.10
2017-10-28T02:36:29.457Z,15.00
2017-10-28T02:38:56.909Z,14.70
2017-10-28T02:41:24.382Z,14.03
2017-10-28T02:43:51.901Z,14.90
2017-10-28T02:46:20.224Z,15.63
2017-10-28T02:48:47.700Z,14.30
2017-10-28T02:51:15.958Z,16.30
2017-10-28T02:53:43.555Z,14.37
2017-10-28T02:56:11.051Z,15.33
2017-10-28T02:58:38.524Z,15.10
2017-10-28T03:01:06.146Z,15.57
2017-10-28T03:03:34.406Z,14.93
2017-10-28T03:06:02.001Z,15.63
2017-10-28T03:08:29.478Z,15.50
2017-10-28T03:10:56.959Z,15.30
2017-10-28T03:13:24.478Z,16.30
2017-10-28T03:15:52.845Z,15.83
2017-10-28T03:18:20.329Z,15.63
2017-10-28T03:20:47.794Z,16.10
2017-10-28T03:23:15.353Z,15.37
2017-10-28T03:25:42.829Z,17.40
2017-10-28T03:28:11.093Z,15.27
2017-10-28T03:30:39.526Z,16.47
2017-10-28T03:33:07.766Z,14.43
2017-10-28T03:35:35.219Z,17.60
2017-10-28T03:38:03.890Z,15.37
2017-10-28T03:40:32.149Z,16.43
2017-10-28T03:43:00.530Z,16.43
2017-10-28T03:45:28.425Z,16.07
2017-10-28T03:47:55.967Z,16.37
2017-10-28T03:50:23.421Z,16.33
2017-10-28T03:52:51.318Z,17.00
2017-10-28T03:55:18.823Z,16.37
2017-10-28T03:57:46.307Z,16.37
2017-10-28T04:00:13.879Z,16.03
2017-10-28T04:02:41.365Z,16.30
2017-10-28T04:05:09.007Z,15.30
2017-10-28T04:07:36.911Z,16.40
2017-10-28T04:10:04.392Z,16.57
2017-10-28T04:12:31.846Z,13.97
2017-10-28T04:15:00.182Z,14.00
2017-10-28T04:17:27.688Z,16.77
2017-10-28T04:19:55.915Z,16.27
2017-10-28T04:22:23.469Z,16.40
2017-10-28T04:24:50.995Z,15.00
2017-10-28T04:27:18.454Z,16.20
2017-10-28T04:29:47.145Z,15.17
2017-10-28T04:32:14.714Z,15.30
2017-10-28T04:34:42.168Z,13.53
2017-10-28T04:37:10.493Z,15.90
2017-10-28T04:39:38.750Z,16.40
2017-10-28T04:42:07.101Z,16.37
2017-10-28T04:44:34.685Z,16.23
2017-10-28T04:47:02.167Z,15.90
2017-10-28T04:49:30.406Z,17.00
2017-10-28T04:51:57.994Z,16.63
2017-10-28T04:54:25.482Z,17.30
2017-10-28T04:56:53.706Z,16.50
2017-10-28T04:59:21.627Z,16.47
2017-10-28T05:01:49.859Z,15.03
2017-10-28T05:04:17.324Z,16.37
2017-10-28T05:06:44.885Z,17.53
2017-10-28T05:09:13.109Z,17.60
2017-10-28T05:11:40.758Z,16.30
2017-10-28T05:14:08.349Z,18.03
2017-10-28T05:16:35.922Z,19.23
2017-10-28T05:19:03.379Z,18.03
2017-10-28T05:21:30.943Z,17.73
2017-10-28T05:23:58.407Z,18.50
2017-10-28T05:26:26.032Z,17.40
2017-10-28T05:28:53.961Z,17.93
2017-10-28T05:31:21.414Z,18.73
2017-10-28T05:33:48.900Z,17.53
2017-10-28T05:36:16.485Z,16.53
2017-10-28T05:38:43.965Z,17.07
2017-10-28T05:41:11.435Z,17.53
2017-10-28T05:43:39.008Z,19.00
2017-10-28T05:46:06.591Z,16.70
2017-10-28T05:48:35.016Z,18.00
2017-10-28T05:51:03.337Z,18.47
2017-10-28T05:53:30.813Z,18.50
2017-10-28T05:55:58.279Z,17.83
2017-10-28T05:58:25.887Z,17.70
2017-10-28T06:00:53.355Z,17.10
2017-10-28T06:03:21.608Z,18.00
2017-10-28T06:05:50.147Z,19.53
2017-10-28T06:08:17.610Z,18.97
2017-10-28T06:10:45.101Z,17.67
2017-10-28T06:13:12.672Z,17.67
2017-10-28T06:15:40.177Z,18.77
2017-10-28T06:18:07.661Z,18.43
2017-10-28T06:20:35.619Z,17.60
2017-10-28T06:23:03.856Z,19.03
2017-10-28T06:25:31.336Z,17.20
2017-10-28T06:27:58.928Z,17.60
2017-10-28T06:30:26.391Z,17.67
2017-10-28T06:32:53.845Z,17.37
2017-10-28T06:35:21.401Z,18.20
2017-10-28T06:37:48.886Z,17.20
2017-10-28T06:40:16.340Z,15.50
2017-10-28T06:42:43.930Z,18.50
2017-10-28T06:45:11.438Z,19.83
2017-10-28T06:47:38.916Z,17.07
2017-10-28T06:50:06.510Z,17.43
2017-10-28T06:52:34.012Z,16.70
2017-10-28T06:55:02.262Z,16.07
2017-10-28T06:57:29.810Z,17.00
2017-10-28T06:59:58.050Z,16.13
2017-10-28T07:02:25.518Z,15.27
2017-10-28T07:04:53.079Z,17.50
2017-10-28T07:07:21.315Z,15.63
2017-10-28T07:09:48.781Z,15.37
2017-10-28T07:12:16.323Z,16.00
2017-10-28T07:14:45.479Z,14.20
2017-10-28T07:17:12.961Z,16.40
2017-10-28T07:19:40.559Z,14.27
2017-10-28T07:22:08.003Z,14.50
2017-10-28T07:24:36.377Z,13.00
2017-10-28T07:27:04.282Z,14.57
2017-10-28T07:29:31.769Z,13.27
2017-10-28T07:31:59.435Z,13.27
2017-10-28T07:34:26.995Z,13.93
2017-10-28T07:36:54.475Z,13.77
2017-10-28T07:39:21.944Z,12.10
2017-10-28T07:41:49.582Z,11.90
2017-10-28T07:44:17.083Z,13.03
2017-10-28T07:46:44.661Z,13.40
2017-10-28T07:49:12.314Z,13.13
2017-10-28T07:51:39.917Z,14.07
2017-10-28T07:54:07.564Z,13.53
2017-10-28T07:56:35.122Z,14.00
2017-10-28T07:59:03.364Z,12.97
2017-10-28T08:01:31.433Z,13.10
2017-10-28T08:04:05.299Z,14.60
2017-10-28T08:06:33.755Z,15.13
2017-10-28T08:09:01.435Z,12.40
2017-10-28T08:11:28.935Z,14.90
2017-10-28T08:13:56.713Z,14.00
2017-10-28T08:16:24.203Z,13.87
2017-10-28T08:18:51.702Z,12.97
2017-10-28T08:21:21.137Z,12.70
2017-10-28T08:23:49.374Z,12.60
2017-10-28T08:26:17.621Z,12.73
2017-10-28T08:28:45.354Z,14.30
2017-10-28T08:31:14.323Z,12.03
2017-10-28T08:33:42.573Z,11.43
2017-10-28T08:36:10.137Z,12.20
2017-10-28T08:38:38.406Z,12.70
2017-10-28T08:41:07.402Z,13.07
2017-10-28T08:43:35.545Z,12.20
2017-10-28T08:46:03.030Z,12.33
2017-10-28T08:48:30.500Z,12.27
2017-10-28T08:50:58.007Z,12.53
2017-10-28T08:53:25.514Z,12.67
2017-10-28T08:55:53.919Z,13.53
2017-10-28T08:58:23.663Z,13.70
2017-10-28T09:00:51.155Z,13.43
2017-10-28T09:03:18.642Z,12.77
2017-10-28T09:05:46.285Z,12.43
2017-10-28T09:08:14.816Z,13.57
2017-10-28T09:10:42.302Z,12.83
2017-10-28T09:13:09.930Z,11.73
2017-10-28T09:15:37.534Z,12.90
2017-10-28T09:18:05.093Z,12.97
2017-10-28T09:20:33.655Z,13.30
2017-10-28T09:23:01.343Z,12.63
2017-10-28T09:25:29.610Z,12.10
2017-10-28T09:27:57.362Z,12.87
2017-10-28T09:30:24.869Z,12.67
2017-10-28T09:32:52.355Z,19.30
2017-10-28T09:35:19.930Z,14.67
2017-10-28T09:37:48.164Z,12.70
2017-10-28T09:40:15.658Z,13.43
2017-10-28T09:42:44.093Z,11.40
2017-10-28T09:45:11.560Z,12.47
2017-10-28T09:47:39.290Z,12.10
2017-10-28T09:50:06.965Z,12.40
2017-10-28T09:52:34.461Z,12.57
2017-10-28T09:55:01.974Z,12.00
2017-10-28T09:57:30.362Z,11.50
2017-10-28T09:59:58.635Z,10.50
2017-10-28T10:02:26.159Z,10.53
2017-10-28T10:04:53.879Z,10.10
2017-10-28T10:07:22.151Z,10.77
2017-10-28T10:09:49.621Z,9.90
2017-10-28T10:12:17.313Z,10.67
2017-10-28T10:14:44.937Z,10.70
2017-10-28T10:17:12.565Z,8.63
2017-10-28T10:19:40.211Z,9.77
2017-10-28T10:22:07.848Z,8.90
2017-10-28T10:24:35.351Z,8.63
2017-10-28T10:27:02.937Z,8.87
2017-10-28T10:29:30.430Z,9.10
2017-10-28T10:31:57.905Z,8.90
2017-10-28T10:34:26.241Z,10.30
2017-10-28T10:36:53.756Z,8.40
2017-10-28T10:39:22.146Z,8.23
2017-10-28T10:41:49.718Z,8.50
2017-10-28T10:44:17.203Z,8.10
2017-10-28T10:46:44.751Z,7.83
2017-10-28T10:49:13.130Z,6.97
2017-10-28T10:51:40.751Z,7.73
2017-10-28T10:54:09.080Z,7.93
2017-10-28T10:56:37.481Z,7.47
2017-10-28T10:59:04.976Z,7.60
2017-10-28T11:01:33.569Z,7.30
2017-10-28T11:04:01.132Z,7.57
2017-10-28T11:06:28.594Z,8.13
2017-10-28T11:08:56.366Z,8.10
2017-10-28T11:11:28.207Z,7.63
2017-10-28T11:14:04.680Z,7.53
2017-10-28T11:16:32.409Z,7.40
2017-10-28T11:19:00.946Z,9.03
2017-10-28T11:21:29.280Z,7.10
2017-10-28T11:23:56.931Z,7.20
2017-10-28T11:26:24.427Z,6.97
2017-10-28T11:28:52.773Z,7.00
2017-10-28T11:31:20.256Z,6.70
2017-10-28T11:33:48.017Z,8.40
2017-10-28T11:36:15.831Z,7.80
2017-10-28T11:38:44.137Z,6.67
2017-10-28T11:41:11.700Z,5.73
2017-10-28T11:43:39.169Z,6.40
2017-10-28T11:46:06.660Z,6.70
2017-10-28T11:48:35.016Z,6.70
2017-10-28T11:51:02.490Z,6.87
2017-10-28T11:53:29.970Z,6.37
2017-10-28T11:55:58.459Z,7.00
2017-10-28T11:58:26.008Z,6.10
2017-10-28T12:00:53.479Z,6.90
2017-10-28T12:03:21.071Z,6.97
2017-10-28T12:05:48.531Z,7.80
2017-10-28T12:08:15.999Z,6.97
2017-10-28T12:10:43.549Z,8.47
2017-10-28T12:13:11.262Z,8.30
2017-10-28T12:15:39.507Z,7.53
2017-10-28T12:18:07.398Z,7.87
2017-10-28T12:20:35.052Z,8.00
2017-10-28T12:23:02.551Z,7.53
2017-10-28T12:25:30.480Z,7.73
2017-10-28T12:27:57.947Z,7.40
2017-10-28T12:30:25.412Z,7.90
2017-10-28T12:32:52.952Z,7.50
2017-10-28T12:35:20.570Z,7.60
2017-10-28T12:37:48.052Z,7.13
2017-10-28T12:40:16.477Z,7.07
2017-10-28T12:42:44.865Z,7.70
2017-10-28T12:45:12.411Z,7.77
2017-10-28T12:47:40.877Z,7.57
2017-10-28T12:50:08.472Z,9.47
2017-10-28T12:52:36.001Z,7.13
2017-10-28T12:55:03.664Z,6.60
2017-10-28T12:57:31.579Z,8.23
2017-10-28T12:59:59.882Z,6.40
2017-10-28T13:02:28.174Z,7.90
2017-10-28T13:04:56.004Z,6.60
2017-10-28T13:09:52.159Z,6.73
2017-10-28T13:12:19.842Z,7.30
2017-10-28T13:14:47.341Z,6.67
2017-10-28T13:17:14.833Z,7.57
2017-10-28T13:19:42.564Z,7.00
2017-10-28T13:22:10.202Z,6.67
2017-10-28T13:24:37.724Z,6.87
2017-10-28T13:27:06.054Z,7.00
2017-10-28T13:29:35.055Z,7.50
2017-10-28T13:32:02.599Z,7.37
2017-10-28T13:34:30.513Z,7.43
2017-10-28T13:36:58.758Z,6.27
2017-10-28T13:39:27.253Z,6.33
2017-10-28T13:41:54.884Z,6.77
2017-10-28T13:44:23.153Z,7.00
2017-10-28T13:46:51.463Z,6.87
2017-10-28T13:49:20.359Z,6.23
2017-10-28T13:51:47.946Z,6.27
2017-10-28T13:54:15.545Z,6.60
2017-10-28T13:56:43.530Z,6.80
2017-10-28T13:59:11.028Z,6.60
2017-10-28T14:01:38.520Z,6.17
2017-10-28T14:04:07.329Z,6.87
2017-10-28T14:06:35.766Z,7.47
2017-10-28T14:09:03.257Z,7.00
2017-10-28T14:11:31.258Z,7.00
2017-10-28T14:13:58.766Z,6.87
2017-10-28T14:16:26.273Z,9.73
2017-10-28T14:18:55.146Z,7.17
2017-10-28T14:21:22.674Z,7.00
2017-10-28T14:23:50.183Z,6.47
2017-10-28T14:26:17.737Z,7.03
2017-10-28T14:28:45.346Z,7.63
2017-10-28T14:31:12.827Z,7.83
2017-10-28T14:33:40.402Z,7.27
2017-10-28T14:36:08.742Z,7.17
2017-10-28T14:38:36.236Z,7.03
2017-10-28T14:41:03.730Z,7.80
2017-10-28T14:43:31.285Z,7.60
2017-10-28T14:45:58.772Z,7.77
2017-10-28T14:48:26.389Z,7.80
2017-10-28T14:50:53.900Z,8.23
2017-10-28T14:53:22.135Z,7.40
2017-10-28T14:55:49.722Z,7.60
2017-10-28T14:58:17.285Z,7.30
2017-10-28T15:00:45.532Z,7.67
2017-10-28T15:03:13.054Z,7.70
2017-10-28T15:05:40.516Z,7.60
2017-10-28T15:08:08.078Z,7.67
2017-10-28T15:10:35.691Z,7.07
2017-10-28T15:13:03.943Z,6.80
2017-10-28T15:15:31.540Z,7.77
2017-10-28T15:17:59.795Z,7.80
2017-10-28T15:20:28.087Z,7.00
2017-10-28T15:22:56.555Z,7.80
2017-10-28T15:25:24.150Z,7.87
2017-10-28T15:27:51.706Z,7.97
2017-10-28T15:30:19.193Z,8.43
2017-10-28T15:32:46.774Z,7.83
2017-10-28T15:35:14.237Z,8.10
2017-10-28T15:37:42.578Z,7.90
2017-10-28T15:40:10.045Z,7.17
2017-10-28T15:42:38.310Z,7.93
2017-10-28T15:45:05.882Z,7.70
2017-10-28T15:47:33.363Z,8.43
2017-10-28T15:50:01.248Z,7.80
2017-10-28T15:52:28.796Z,8.20
2017-10-28T15:54:57.111Z,7.33
2017-10-28T15:57:25.043Z,8.27
2017-10-28T15:59:52.663Z,7.80
2017-10-28T16:02:21.129Z,7.03
2017-10-28T16:04:48.651Z,7.60
2017-10-28T16:07:17.018Z,7.27
2017-10-28T16:09:45.467Z,7.47
2017-10-28T16:12:13.741Z,7.20
2017-10-28T16:14:42.100Z,7.80
2017-10-28T16:17:09.581Z,7.83
2017-10-28T16:19:38.262Z,8.30
2017-10-28T16:22:06.625Z,7.90
2017-10-28T16:24:34.128Z,7.27
2017-10-28T16:27:01.638Z,8.40
2017-10-28T16:29:29.913Z,8.10
2017-10-28T16:31:57.371Z,7.90
2017-10-28T16:34:24.884Z,8.77
2017-10-28T16:36:52.379Z,8.87
2017-10-28T16:39:19.902Z,8.73
2017-10-28T16:41:49.183Z,8.30
2017-10-28T16:44:16.712Z,8.20
2017-10-28T16:46:44.213Z,9.07
2017-10-28T16:49:11.681Z,8.00
2017-10-28T16:51:39.226Z,8.17
2017-10-28T16:54:07.480Z,8.67
2017-10-28T16:56:35.032Z,8.30
2017-10-28T16:59:02.502Z,8.57
2017-10-28T17:01:30.018Z,7.20
2017-10-28T17:03:57.498Z,7.93
2017-10-28T17:06:25.762Z,8.60
2017-10-28T17:08:54.018Z,8.33
2017-10-28T17:11:21.644Z,8.93
2017-10-28T17:13:49.898Z,8.37
2017-10-28T17:16:17.440Z,8.77
2017-10-28T17:18:45.718Z,9.10
2017-10-28T17:21:13.281Z,8.30
2017-10-28T17:23:40.784Z,8.80
2017-10-28T17:26:10.136Z,7.90
2017-10-28T17:28:38.414Z,8.47
2017-10-28T17:31:06.192Z,8.00
2017-10-28T17:33:33.792Z,8.40
2017-10-28T17:36:01.318Z,8.07
2017-10-28T17:38:28.846Z,8.30
2017-10-28T17:40:56.340Z,7.27
2017-10-28T17:43:23.919Z,7.10
2017-10-28T17:45:51.406Z,7.27
2017-10-28T17:48:19.769Z,7.80
2017-10-28T17:50:47.597Z,7.47
2017-10-28T17:53:15.945Z,7.10
2017-10-28T17:55:44.085Z,7.13
2017-10-28T17:58:11.692Z,7.13
2017-10-28T18:00:39.861Z,6.30
2017-10-28T18:03:07.456Z,6.47
2017-10-28T18:05:34.951Z,8.10
2017-10-28T18:08:03.511Z,6.43
2017-10-28T18:10:31.873Z,6.60
2017-10-28T18:13:00.270Z,5.93
2017-10-28T18:15:27.812Z,5.70
2017-10-28T18:17:55.328Z,5.73
2017-10-28T18:20:22.812Z,6.23
2017-10-28T18:22:51.596Z,5.97
2017-10-28T18:25:19.122Z,5.63
2017-10-28T18:27:46.818Z,6.70
2017-10-28T18:30:15.164Z,6.50
2017-10-28T18:32:42.653Z,4.90
2017-10-28T18:35:10.213Z,5.10
2017-10-28T18:37:38.513Z,5.23
2017-10-28T18:40:06.079Z,4.63
2017-10-28T18:42:33.618Z,5.80
2017-10-28T18:45:01.973Z,4.20
2017-10-28T18:47:29.468Z,5.57
2017-10-28T18:49:57.222Z,5.20
2017-10-28T18:52:24.728Z,4.60
2017-10-28T18:54:52.290Z,4.90
2017-10-28T18:57:21.152Z,4.17
2017-10-28T18:59:48.724Z,4.63
2017-10-28T19:02:16.334Z,5.00
2017-10-28T19:04:44.025Z,3.90
2017-10-28T19:07:12.713Z,4.30
2017-10-28T19:09:41.329Z,4.30
2017-10-28T19:12:08.958Z,3.90
2017-10-28T19:14:36.487Z,4.17
2017-10-28T19:17:04.755Z,3.40
2017-10-28T19:19:32.546Z,3.80
2017-10-28T19:22:00.016Z,3.90
2017-10-28T19:24:27.507Z,3.70
2017-10-28T19:26:56.364Z,3.03
2017-10-28T19:29:23.853Z,3.10
2017-10-28T19:31:51.390Z,3.60
2017-10-28T19:34:19.062Z,3.17
2017-10-28T19:36:46.545Z,3.57
2017-10-28T19:39:14.033Z,5.13
2017-10-28T19:41:42.043Z,4.23
2017-10-28T19:44:09.518Z,3.30
2017-10-28T19:46:36.992Z,3.17
2017-10-28T19:49:05.409Z,3.60
2017-10-28T19:51:32.908Z,3.53
2017-10-28T19:54:00.481Z,3.20
2017-10-28T19:56:28.622Z,3.50
2017-10-28T19:58:56.101Z,3.00
2017-10-28T20:01:23.613Z,3.10
2017-10-28T20:03:52.066Z,2.47
2017-10-28T20:06:19.585Z,2.93
2017-10-28T20:08:47.054Z,3.30
2017-10-28T20:11:15.108Z,2.73
2017-10-28T20:13:44.115Z,3.40
2017-10-28T20:16:12.351Z,2.50
2017-10-28T20:18:40.005Z,3.60
2017-10-28T20:21:07.504Z,2.57
2017-10-28T20:23:35.036Z,3.53
2017-10-28T20:26:03.542Z,3.23
2017-10-28T20:28:32.343Z,3.40
2017-10-28T20:31:00.736Z,3.57
2017-10-28T20:33:28.649Z,3.33
2017-10-28T20:35:57.025Z,4.13
2017-10-28T20:38:24.517Z,3.40
2017-10-28T20:40:52.010Z,4.07
2017-10-28T20:46:16.472Z,3.90
2017-10-28T20:48:43.974Z,3.77
2017-10-28T20:51:11.465Z,4.10
2017-10-28T20:53:39.722Z,4.30
2017-10-28T20:56:07.243Z,4.87
2017-10-28T20:58:34.722Z,4.07
2017-10-28T21:01:03.314Z,4.70
2017-10-28T21:03:30.785Z,4.23
2017-10-28T21:05:58.413Z,4.93
2017-10-28T21:08:26.399Z,4.57
2017-10-28T21:10:53.982Z,3.93
2017-10-28T21:13:21.492Z,4.80
2017-10-28T21:15:49.008Z,4.20
2017-10-28T21:18:16.552Z,4.63
2017-10-28T21:20:44.033Z,4.90
2017-10-28T21:23:11.531Z,4.87
2017-10-28T21:25:39.002Z,4.60
2017-10-28T21:28:06.480Z,4.90
2017-10-28T21:30:34.855Z,5.10
2017-10-28T21:33:04.144Z,5.03
2017-10-28T21:35:31.775Z,5.80
2017-10-28T21:37:59.243Z,4.73
2017-10-28T21:40:26.752Z,4.70
2017-10-28T21:42:54.997Z,5.00
2017-10-28T21:45:22.510Z,4.90
2017-10-28T21:47:49.978Z,4.90
2017-10-28T21:50:17.649Z,4.70
2017-10-28T21:52:46.079Z,4.40
2017-10-28T21:55:13.545Z,4.33
2017-10-28T21:57:41.858Z,4.50
2017-10-28T22:00:10.228Z,5.33
2017-10-28T22:02:37.852Z,5.30
2017-10-28T22:05:05.302Z,4.53
2017-10-28T22:07:33.270Z,5.00
2017-10-28T22:10:00.839Z,4.23
2017-10-28T22:12:28.305Z,4.90
2017-10-28T22:14:56.953Z,4.50
2017-10-28T22:17:24.415Z,5.13
2017-10-28T22:19:51.905Z,4.33
2017-10-28T22:22:20.229Z,4.13
2017-10-28T22:24:47.693Z,4.00
2017-10-28T22:27:15.912Z,3.90
2017-10-28T22:29:43.379Z,4.60
2017-10-28T22:32:11.633Z,5.17
2017-10-28T22:34:39.092Z,5.03
2017-10-28T22:37:06.582Z,5.00
2017-10-28T22:39:34.135Z,5.80
2017-10-28T22:42:01.636Z,5.40
2017-10-28T22:44:29.123Z,5.97
2017-10-28T22:46:56.620Z,5.87
2017-10-28T22:49:24.097Z,5.40
2017-10-28T22:51:51.581Z,5.40
2017-10-28T22:54:19.038Z,5.80
2017-10-28T22:56:47.297Z,5.40
2017-10-28T22:59:14.888Z,5.63
2017-10-28T23:01:42.360Z,6.00
2017-10-28T23:04:09.847Z,1.00
2017-10-28T23:06:38.197Z,3.33
2017-10-28T23:09:05.657Z,2.53
2017-10-28T23:11:33.881Z,0.50
2017-10-28T23:14:01.389Z,5.00
2017-10-28T23:16:29.633Z,4.13
2017-10-28T23:18:57.999Z,0.77
2017-10-28T23:21:25.479Z,2.80
2017-10-28T23:23:52.930Z,5.77
2017-10-28T23:26:20.413Z,6.03
2017-10-28T23:28:48.648Z,2.10
2017-10-28T23:31:16.135Z,1.07
2017-10-28T23:33:43.625Z,1.60
2017-10-28T23:36:11.088Z,4.87
2017-10-28T23:38:38.540Z,4.87
2017-10-28T23:41:06.017Z,6.27
2017-10-28T23:43:33.485Z,7.83
2017-10-28T23:46:01.219Z,7.13
2017-10-28T23:48:28.871Z,7.30
2017-10-28T23:50:56.344Z,7.50
2017-10-28T23:53:23.803Z,7.47
2017-10-28T23:55:51.394Z,7.07
2017-10-28T23:58:19.639Z,7.60
